createdAt,value
2023-05-25T00:00:26.078Z,7.18
2023-05-25T00:02:56.477Z,5.97
2023-05-25T00:05:28.886Z,7.72
2023-05-25T00:07:57.964Z,6.32
2023-05-25T00:10:27.222Z,7.85
2023-05-25T00:12:57.732Z,7.75
2023-05-25T00:15:26.870Z,7.30
2023-05-25T00:17:56.181Z,7.45
2023-05-25T00:20:25.582Z,8.35
2023-05-25T00:22:56.286Z,8.55
2023-05-25T00:25:25.593Z,8.35
2023-05-25T00:27:54.601Z,9.23
2023-05-25T00:30:25.114Z,8.60
2023-05-25T00:32:55.661Z,10.40
2023-05-25T00:35:24.902Z,8.95
2023-05-25T00:37:54.177Z,11.52
2023-05-25T00:40:26.205Z,11.32
2023-05-25T00:42:55.516Z,9.02
2023-05-25T00:45:26.207Z,11.30
2023-05-25T00:47:56.355Z,11.48
2023-05-25T00:50:42.967Z,10.05
2023-05-25T00:53:13.908Z,10.82
2023-05-25T00:55:51.506Z,12.10
2023-05-25T00:58:25.598Z,10.60
2023-05-25T01:00:59.049Z,11.00
2023-05-25T01:03:36.275Z,12.00
2023-05-25T01:06:08.581Z,9.93
2023-05-25T01:08:39.596Z,11.23
2023-05-25T01:11:13.380Z,8.48
2023-05-25T01:13:44.136Z,9.73
2023-05-25T01:16:17.206Z,8.20
2023-05-25T01:18:48.106Z,7.93
2023-05-25T01:21:29.010Z,8.98
2023-05-25T01:24:08.398Z,9.48
2023-05-25T01:26:45.775Z,9.30
2023-05-25T01:29:15.822Z,9.40
2023-05-25T01:31:46.755Z,8.57
2023-05-25T01:34:17.726Z,8.32
2023-05-25T01:36:48.318Z,8.40
2023-05-25T01:39:17.468Z,5.95
2023-05-25T01:41:46.790Z,7.30
2023-05-25T01:44:18.804Z,9.82
2023-05-25T01:46:55.423Z,8.25
2023-05-25T01:49:31.154Z,11.80
2023-05-25T01:52:14.057Z,8.07
2023-05-25T01:54:48.789Z,6.82
2023-05-25T01:57:20.683Z,7.55
2023-05-25T01:59:52.981Z,10.70
2023-05-25T02:02:22.596Z,8.18
2023-05-25T02:04:54.225Z,6.00
2023-05-25T02:07:26.859Z,5.40
2023-05-25T02:09:56.457Z,9.93
2023-05-25T02:12:25.665Z,5.65
2023-05-25T02:14:54.680Z,5.75
2023-05-25T02:17:28.149Z,6.05
2023-05-25T02:19:57.433Z,4.22
2023-05-25T02:22:28.662Z,4.60
2023-05-25T02:24:57.706Z,7.05
2023-05-25T02:27:26.873Z,5.80
2023-05-25T02:29:56.003Z,6.30
2023-05-25T02:32:29.577Z,7.03
2023-05-25T02:34:58.718Z,6.57
2023-05-25T02:37:29.326Z,6.85
2023-05-25T02:39:58.407Z,6.53
2023-05-25T02:42:27.858Z,6.85
2023-05-25T02:44:56.936Z,6.00
2023-05-25T02:47:26.237Z,5.97
2023-05-25T02:49:55.507Z,5.68
2023-05-25T02:52:25.745Z,6.10
2023-05-25T02:54:56.557Z,6.38
2023-05-25T03:00:02.538Z,6.75
2023-05-25T03:02:31.648Z,5.43
2023-05-25T03:05:03.116Z,6.78
2023-05-25T03:07:33.437Z,7.03
2023-05-25T03:10:04.165Z,6.00
2023-05-25T03:12:35.232Z,5.57
2023-05-25T03:15:09.346Z,5.70
2023-05-25T03:17:38.694Z,5.80
2023-05-25T03:20:15.769Z,11.20
2023-05-25T03:22:48.513Z,5.95
2023-05-25T03:25:19.486Z,6.30
2023-05-25T03:27:48.847Z,8.27
2023-05-25T03:30:18.087Z,6.78
2023-05-25T03:32:48.178Z,8.13
2023-05-25T03:35:17.824Z,6.43
2023-05-25T03:37:46.901Z,6.78
2023-05-25T03:40:16.056Z,6.90
2023-05-25T03:42:46.718Z,6.05
2023-05-25T03:45:16.331Z,5.45
2023-05-25T03:47:50.520Z,7.20
2023-05-25T03:50:21.997Z,5.28
2023-05-25T03:52:52.186Z,6.50
2023-05-25T03:55:21.254Z,6.25
2023-05-25T03:57:51.780Z,7.55
2023-05-25T04:00:21.098Z,6.93
2023-05-25T04:02:51.602Z,5.35
2023-05-25T04:05:20.748Z,11.82
2023-05-25T04:07:49.889Z,6.97
2023-05-25T04:10:19.077Z,16.67
2023-05-25T04:12:48.139Z,8.35
2023-05-25T04:15:21.294Z,6.43
2023-05-25T04:18:06.054Z,5.45
2023-05-25T04:20:35.575Z,6.18
2023-05-25T04:23:04.814Z,8.93
2023-05-25T04:25:34.553Z,6.35
2023-05-25T04:28:03.880Z,9.85
2023-05-25T04:30:58.141Z,6.00
2023-05-25T04:33:50.372Z,15.00
2023-05-25T04:36:27.080Z,7.63
2023-05-25T04:38:56.439Z,7.18
2023-05-25T04:41:30.359Z,10.75
2023-05-25T04:44:09.788Z,5.78
2023-05-25T04:46:45.031Z,9.73
2023-05-25T04:49:20.304Z,6.70
2023-05-25T04:51:51.666Z,8.52
2023-05-25T04:54:21.364Z,6.10
2023-05-25T04:56:53.305Z,6.22
2023-05-25T04:59:22.646Z,7.47
2023-05-25T05:01:53.192Z,5.88
2023-05-25T05:04:23.046Z,8.80
2023-05-25T05:06:52.504Z,7.80
2023-05-25T05:09:25.216Z,6.18
2023-05-25T05:11:57.355Z,6.45
2023-05-25T05:14:26.459Z,6.35
2023-05-25T05:17:09.125Z,5.53
2023-05-25T05:19:38.272Z,6.95
2023-05-25T05:22:09.953Z,5.68
2023-05-25T05:24:40.269Z,8.02
2023-05-25T05:27:09.426Z,7.15
2023-05-25T05:29:44.757Z,6.40
2023-05-25T05:32:15.348Z,7.93
2023-05-25T05:34:47.174Z,6.50
2023-05-25T05:37:30.999Z,7.15
2023-05-25T05:40:01.498Z,9.18
2023-05-25T05:42:33.065Z,7.88
2023-05-25T05:45:02.567Z,8.57
2023-05-25T05:47:33.123Z,6.63
2023-05-25T05:50:02.167Z,7.85
2023-05-25T05:52:32.225Z,8.23
2023-05-25T05:55:01.284Z,8.70
2023-05-25T05:57:30.285Z,7.70
2023-05-25T06:00:00.462Z,7.57
2023-05-25T06:02:29.652Z,7.78
2023-05-25T06:05:01.640Z,8.45
2023-05-25T06:07:35.255Z,7.78
2023-05-25T06:10:04.603Z,10.75
2023-05-25T06:12:33.765Z,11.20
2023-05-25T06:15:03.577Z,8.93
2023-05-25T06:17:32.925Z,7.95
2023-05-25T06:20:03.945Z,9.98
2023-05-25T06:22:34.635Z,10.23
2023-05-25T06:25:03.738Z,8.57
2023-05-25T06:27:32.780Z,9.45
2023-05-25T06:30:03.201Z,7.75
2023-05-25T06:32:32.415Z,9.98
2023-05-25T06:35:03.395Z,7.88
2023-05-25T06:37:35.430Z,10.10
2023-05-25T06:40:09.536Z,10.50
2023-05-25T06:42:39.227Z,9.55
2023-05-25T06:45:28.155Z,11.43
2023-05-25T06:47:57.575Z,8.20
2023-05-25T06:50:28.936Z,9.52
2023-05-25T06:52:59.791Z,12.18
2023-05-25T06:55:29.671Z,11.55
2023-05-25T06:57:59.026Z,13.98
2023-05-25T07:00:28.199Z,11.55
2023-05-25T07:02:57.291Z,9.77
2023-05-25T07:05:30.841Z,9.65
2023-05-25T07:07:59.893Z,7.40
2023-05-25T07:10:28.884Z,9.40
2023-05-25T07:12:57.990Z,10.23
2023-05-25T07:15:27.669Z,10.57
2023-05-25T07:17:59.267Z,7.88
2023-05-25T07:20:30.505Z,10.63
2023-05-25T07:23:01.186Z,13.57
2023-05-25T07:25:30.272Z,8.82
2023-05-25T07:27:59.499Z,6.68
2023-05-25T07:30:28.738Z,7.35
2023-05-25T07:32:58.284Z,7.97
2023-05-25T07:35:27.567Z,6.00
2023-05-25T07:38:02.524Z,7.75
2023-05-25T07:40:31.900Z,6.22
2023-05-25T07:43:01.218Z,8.00
2023-05-25T07:45:31.011Z,5.88
2023-05-25T07:48:00.173Z,6.57
2023-05-25T07:50:31.542Z,6.50
2023-05-25T07:53:02.315Z,9.00
2023-05-25T07:55:31.342Z,7.70
2023-05-25T07:58:00.289Z,8.23
2023-05-25T08:00:29.666Z,7.13
2023-05-25T08:02:58.887Z,7.43
2023-05-25T08:05:29.283Z,6.38
2023-05-25T08:07:58.383Z,7.88
2023-05-25T08:10:32.200Z,7.78
2023-05-25T08:13:01.310Z,5.20
2023-05-25T08:15:30.448Z,5.95
2023-05-25T08:17:59.563Z,7.45
2023-05-25T08:20:28.671Z,5.63
2023-05-25T08:22:59.212Z,7.75
2023-05-25T08:25:29.636Z,8.82
2023-05-25T08:27:59.986Z,7.35
2023-05-25T08:30:29.268Z,9.32
2023-05-25T08:32:58.338Z,7.38
2023-05-25T08:35:27.480Z,5.78
2023-05-25T08:37:56.582Z,4.93
2023-05-25T08:40:29.846Z,6.30
2023-05-25T08:42:58.909Z,7.53
2023-05-25T08:48:05.481Z,5.55
2023-05-25T08:50:35.588Z,7.13
2023-05-25T08:53:09.513Z,6.10
2023-05-25T08:55:43.620Z,6.22
2023-05-25T08:58:20.649Z,8.23
2023-05-25T09:00:56.431Z,5.78
2023-05-25T09:03:25.961Z,6.45
2023-05-25T09:05:57.599Z,6.07
2023-05-25T09:08:27.375Z,6.75
2023-05-25T09:10:58.353Z,5.72
2023-05-25T09:13:27.984Z,8.23
2023-05-25T09:15:57.088Z,5.80
2023-05-25T09:18:26.412Z,5.13
2023-05-25T09:20:56.368Z,4.40
2023-05-25T09:23:26.025Z,4.93
2023-05-25T09:25:55.944Z,7.18
2023-05-25T09:28:27.786Z,5.60
2023-05-25T09:30:57.884Z,6.00
2023-05-25T09:33:27.441Z,7.90
2023-05-25T09:35:57.117Z,8.00
2023-05-25T09:38:26.504Z,7.05
2023-05-25T09:40:56.234Z,5.53
2023-05-25T09:43:39.694Z,7.15
2023-05-25T09:46:10.774Z,7.18
2023-05-25T09:48:40.083Z,4.65
2023-05-25T09:51:09.735Z,5.72
2023-05-25T09:53:38.737Z,5.72
2023-05-25T09:56:08.171Z,4.60
2023-05-25T09:58:38.593Z,6.82
2023-05-25T10:01:07.860Z,6.00
2023-05-25T10:04:03.572Z,4.47
2023-05-25T10:06:35.010Z,6.72
2023-05-25T10:09:05.487Z,8.60
2023-05-25T10:11:36.354Z,4.97
2023-05-25T10:14:09.444Z,4.32
2023-05-25T10:16:42.315Z,4.55
2023-05-25T10:19:18.429Z,4.05
2023-05-25T10:21:56.099Z,4.03
2023-05-25T10:24:36.740Z,5.60
2023-05-25T10:27:18.427Z,4.82
2023-05-25T10:29:59.210Z,5.05
2023-05-25T10:32:29.504Z,5.10
2023-05-25T10:35:00.381Z,5.20
2023-05-25T10:37:30.662Z,5.47
2023-05-25T10:40:01.300Z,5.40
2023-05-25T10:42:31.287Z,4.93
2023-05-25T10:45:02.373Z,4.18
2023-05-25T10:47:32.350Z,6.97
2023-05-25T10:50:03.060Z,6.80
2023-05-25T10:52:33.542Z,4.35
2023-05-25T10:55:04.983Z,5.55
2023-05-25T10:57:34.421Z,4.55
2023-05-25T11:00:10.371Z,4.35
2023-05-25T11:03:00.405Z,6.38
2023-05-25T11:05:40.828Z,4.03
2023-05-25T11:08:12.527Z,5.22
2023-05-25T11:11:00.190Z,4.90
2023-05-25T11:13:41.442Z,4.45
2023-05-25T11:16:21.338Z,4.68
2023-05-25T11:18:57.809Z,5.95
2023-05-25T11:21:45.204Z,4.32
2023-05-25T11:24:18.312Z,3.67
2023-05-25T11:26:56.917Z,5.88
2023-05-25T11:29:27.380Z,5.10
2023-05-25T11:31:57.898Z,4.05
2023-05-25T11:34:28.123Z,3.78
2023-05-25T11:37:01.858Z,3.67
2023-05-25T11:39:32.021Z,3.67
2023-05-25T11:42:06.939Z,4.30
2023-05-25T11:44:38.990Z,5.13
2023-05-25T11:47:15.929Z,5.22
2023-05-25T11:49:47.279Z,4.15
2023-05-25T11:52:18.118Z,4.65
2023-05-25T11:54:47.783Z,4.85
2023-05-25T11:57:18.603Z,4.07
2023-05-25T11:59:54.629Z,6.38
2023-05-25T12:02:26.083Z,5.63
2023-05-25T12:04:56.314Z,5.03
2023-05-25T12:07:26.614Z,3.78
2023-05-25T12:10:07.835Z,4.65
2023-05-25T12:12:42.466Z,5.57
2023-05-25T12:15:14.025Z,6.90
2023-05-25T12:17:46.912Z,3.20
2023-05-25T12:20:18.549Z,3.10
2023-05-25T12:22:48.891Z,3.83
2023-05-25T12:25:22.713Z,4.68
2023-05-25T12:28:13.453Z,3.83
2023-05-25T12:30:43.884Z,3.35
2023-05-25T12:33:25.681Z,4.18
2023-05-25T12:35:55.847Z,4.65
2023-05-25T12:38:25.330Z,3.90
2023-05-25T12:41:07.254Z,4.70
2023-05-25T12:43:40.609Z,4.60
2023-05-25T12:46:09.771Z,3.90
2023-05-25T12:48:44.601Z,3.75
2023-05-25T12:51:13.875Z,4.68
2023-05-25T12:53:51.748Z,5.63
2023-05-25T12:56:27.020Z,3.05
2023-05-25T12:58:58.960Z,3.92
2023-05-25T13:01:28.136Z,3.65
2023-05-25T13:03:58.945Z,3.13
2023-05-25T13:06:28.089Z,5.68
2023-05-25T13:08:59.892Z,5.68
2023-05-25T13:11:29.045Z,4.13
2023-05-25T13:13:58.425Z,3.30
2023-05-25T13:16:28.000Z,3.55
2023-05-25T13:18:58.508Z,5.40
2023-05-25T13:21:28.353Z,4.72
2023-05-25T13:23:57.296Z,3.55
2023-05-25T13:26:26.493Z,3.75
2023-05-25T13:28:55.497Z,3.13
2023-05-25T13:31:24.631Z,4.95
2023-05-25T13:33:53.731Z,3.20
2023-05-25T13:36:24.279Z,2.92
2023-05-25T13:38:53.378Z,3.65
2023-05-25T13:41:22.403Z,3.58
2023-05-25T13:43:53.768Z,2.88
2023-05-25T13:46:34.052Z,2.75
2023-05-25T13:49:04.288Z,3.65
2023-05-25T13:51:38.311Z,3.67
2023-05-25T13:54:07.465Z,3.92
2023-05-25T13:56:36.533Z,3.33
2023-05-25T13:59:05.842Z,3.33
2023-05-25T14:01:34.910Z,3.45
2023-05-25T14:04:04.826Z,3.50
2023-05-25T14:06:35.957Z,3.78
2023-05-25T14:09:05.134Z,3.25
2023-05-25T14:11:35.332Z,4.13
2023-05-25T14:14:11.415Z,3.85
2023-05-25T14:16:45.736Z,3.10
2023-05-25T14:19:16.733Z,3.58
2023-05-25T14:21:53.840Z,3.33
2023-05-25T14:24:29.028Z,4.13
2023-05-25T14:26:58.213Z,3.60
2023-05-25T14:29:30.298Z,3.28
2023-05-25T14:31:59.467Z,3.83
2023-05-25T14:34:28.805Z,6.47
2023-05-25T14:36:59.355Z,3.33
2023-05-25T14:39:28.391Z,3.58
2023-05-25T14:41:57.516Z,4.10
2023-05-25T14:44:26.551Z,3.45
2023-05-25T14:46:58.381Z,3.35
2023-05-25T14:49:27.820Z,7.45
2023-05-25T14:51:58.378Z,3.97
2023-05-25T14:54:27.450Z,3.28
2023-05-25T14:56:56.576Z,3.53
2023-05-25T14:59:25.535Z,3.80
2023-05-25T15:01:54.690Z,3.55
2023-05-25T15:04:27.182Z,4.22
2023-05-25T15:06:56.379Z,3.70
2023-05-25T15:09:26.762Z,3.38
2023-05-25T15:11:58.935Z,3.08
2023-05-25T15:14:28.248Z,4.72
2023-05-25T15:16:57.308Z,2.90
2023-05-25T15:19:26.471Z,3.50
2023-05-25T15:21:55.462Z,3.45
2023-05-25T15:24:28.652Z,3.92
2023-05-25T15:26:57.796Z,3.65
2023-05-25T15:29:27.071Z,4.18
2023-05-25T15:31:56.197Z,3.25
2023-05-25T15:34:34.857Z,3.47
2023-05-25T15:37:04.149Z,3.22
2023-05-25T15:39:34.775Z,3.88
2023-05-25T15:42:03.873Z,2.60
2023-05-25T15:44:35.864Z,7.72
2023-05-25T15:47:05.318Z,3.90
2023-05-25T15:49:36.950Z,2.80
2023-05-25T15:52:07.269Z,4.10
2023-05-25T15:54:37.743Z,3.88
2023-05-25T15:57:07.263Z,3.33
2023-05-25T15:59:36.506Z,4.03
2023-05-25T16:02:06.239Z,3.10
2023-05-25T16:04:35.282Z,3.50
2023-05-25T16:07:04.301Z,3.35
2023-05-25T16:09:33.335Z,3.22
2023-05-25T16:12:03.816Z,3.40
2023-05-25T16:14:32.912Z,3.40
2023-05-25T16:17:02.039Z,4.45
2023-05-25T16:19:31.023Z,5.32
2023-05-25T16:22:02.387Z,5.47
2023-05-25T16:24:31.440Z,8.20
2023-05-25T16:27:00.929Z,6.07
2023-05-25T16:29:31.355Z,8.63
2023-05-25T16:32:00.603Z,7.18
2023-05-25T16:34:29.705Z,8.82
2023-05-25T16:36:58.855Z,4.03
2023-05-25T16:39:27.842Z,6.38
2023-05-25T16:41:56.937Z,4.97
2023-05-25T16:44:26.431Z,5.05
2023-05-25T16:46:56.979Z,3.88
2023-05-25T16:49:25.934Z,5.28
2023-05-25T16:51:55.502Z,5.70
2023-05-25T16:54:24.477Z,5.05
2023-05-25T16:56:53.640Z,4.57
2023-05-25T16:59:23.085Z,5.63
2023-05-25T17:01:52.412Z,4.90
2023-05-25T17:04:23.036Z,5.25
2023-05-25T17:06:54.693Z,4.38
2023-05-25T17:09:25.182Z,5.95
2023-05-25T17:11:54.278Z,5.00
2023-05-25T17:14:23.343Z,5.07
2023-05-25T17:16:52.298Z,4.95
2023-05-25T17:19:23.650Z,5.93
2023-05-25T17:21:52.706Z,4.15
2023-05-25T17:24:21.638Z,4.72
2023-05-25T17:26:51.792Z,4.75
2023-05-25T17:29:20.958Z,7.93
2023-05-25T17:31:50.175Z,4.10
2023-05-25T17:34:19.319Z,4.60
2023-05-25T17:36:49.695Z,5.38
2023-05-25T17:39:18.767Z,5.30
2023-05-25T17:41:49.765Z,5.32
2023-05-25T17:44:18.724Z,5.90
2023-05-25T17:46:47.762Z,6.82
2023-05-25T17:49:16.756Z,5.32
2023-05-25T17:51:46.791Z,6.43
2023-05-25T17:54:19.861Z,7.82
2023-05-25T17:56:49.006Z,7.03
2023-05-25T17:59:17.993Z,6.30
2023-05-25T18:01:47.341Z,5.40
2023-05-25T18:04:16.907Z,5.95
2023-05-25T18:06:46.250Z,5.63
2023-05-25T18:09:17.109Z,5.13
2023-05-25T18:11:49.893Z,6.25
2023-05-25T18:14:18.985Z,8.48
2023-05-25T18:16:49.794Z,5.45
2023-05-25T18:19:20.898Z,5.65
2023-05-25T18:21:53.030Z,6.95
2023-05-25T18:24:22.448Z,5.20
2023-05-25T18:26:53.418Z,5.72
2023-05-25T18:29:23.136Z,6.18
2023-05-25T18:31:52.333Z,7.32
2023-05-25T18:34:22.701Z,8.10
2023-05-25T18:36:51.869Z,5.63
2023-05-25T18:39:21.199Z,6.45
2023-05-25T18:41:50.595Z,7.63
2023-05-25T18:44:21.282Z,7.13
2023-05-25T18:46:52.874Z,7.15
2023-05-25T18:49:23.432Z,6.78
2023-05-25T18:51:52.575Z,6.38
2023-05-25T18:54:21.787Z,6.00
2023-05-25T18:56:51.568Z,7.38
2023-05-25T18:59:22.888Z,5.60
2023-05-25T19:01:52.904Z,5.88
2023-05-25T19:04:24.477Z,8.70
2023-05-25T19:06:53.856Z,6.03
2023-05-25T19:09:22.958Z,8.20
2023-05-25T19:11:56.200Z,8.38
2023-05-25T19:14:26.734Z,7.60
2023-05-25T19:16:58.949Z,8.60
2023-05-25T19:19:30.479Z,13.07
2023-05-25T19:21:59.875Z,10.10
2023-05-25T19:24:29.027Z,9.45
2023-05-25T19:26:58.027Z,10.45
2023-05-25T19:29:30.729Z,8.55
2023-05-25T19:31:59.759Z,8.48
2023-05-25T19:34:28.791Z,13.52
2023-05-25T19:37:07.462Z,12.20
2023-05-25T19:39:40.647Z,8.65
2023-05-25T19:42:10.189Z,6.68
2023-05-25T19:44:41.809Z,6.70
2023-05-25T19:47:12.853Z,6.45
2023-05-25T19:49:42.938Z,5.90
2023-05-25T19:52:12.145Z,6.28
2023-05-25T19:54:41.999Z,6.05
2023-05-25T19:57:11.478Z,5.18
2023-05-25T19:59:42.813Z,7.93
2023-05-25T20:02:12.336Z,8.63
2023-05-25T20:04:41.689Z,8.65
2023-05-25T20:07:12.303Z,5.15
2023-05-25T20:09:42.944Z,8.70
2023-05-25T20:12:15.057Z,5.90
2023-05-25T20:14:45.535Z,6.97
2023-05-25T20:17:40.037Z,5.78
2023-05-25T20:20:09.700Z,10.13
2023-05-25T20:22:38.700Z,7.15
2023-05-25T20:25:08.819Z,8.30
2023-05-25T20:27:38.057Z,6.03
2023-05-25T20:30:10.201Z,5.65
2023-05-25T20:32:39.392Z,7.28
2023-05-25T20:35:09.364Z,6.97
2023-05-25T20:37:38.344Z,7.18
2023-05-25T20:40:08.738Z,5.65
2023-05-25T20:42:37.803Z,6.20
2023-05-25T20:45:09.913Z,7.30
2023-05-25T20:47:41.132Z,8.25
2023-05-25T20:50:10.528Z,6.22
2023-05-25T20:52:41.663Z,5.22
2023-05-25T20:55:10.627Z,7.05
2023-05-25T20:57:39.777Z,7.05
2023-05-25T21:00:12.732Z,7.18
2023-05-25T21:02:44.507Z,4.43
2023-05-25T21:05:13.765Z,6.72
2023-05-25T21:07:42.811Z,8.93
2023-05-25T21:10:12.278Z,5.68
2023-05-25T21:12:41.460Z,6.55
2023-05-25T21:15:12.335Z,7.22
2023-05-25T21:17:41.487Z,4.97
2023-05-25T21:20:11.686Z,6.07
2023-05-25T21:22:41.167Z,6.68
2023-05-25T21:25:13.822Z,8.75
2023-05-25T21:27:42.948Z,7.20
2023-05-25T21:30:14.502Z,6.18
2023-05-25T21:32:43.567Z,7.63
2023-05-25T21:35:12.635Z,7.85
2023-05-25T21:37:41.630Z,6.53
2023-05-25T21:40:11.298Z,6.35
2023-05-25T21:42:40.397Z,9.00
2023-05-25T21:45:13.237Z,6.75
2023-05-25T21:47:43.772Z,7.72
2023-05-25T21:50:12.912Z,8.75
2023-05-25T21:52:44.895Z,6.20
2023-05-25T21:55:17.461Z,7.43
2023-05-25T21:57:48.439Z,7.90
2023-05-25T22:00:18.550Z,8.75
2023-05-25T22:02:49.207Z,6.72
2023-05-25T22:05:18.356Z,6.05
2023-05-25T22:07:47.385Z,7.88
2023-05-25T22:10:16.617Z,7.65
2023-05-25T22:12:47.801Z,8.13
2023-05-25T22:15:17.050Z,8.13
2023-05-25T22:17:46.180Z,8.95
2023-05-25T22:20:17.911Z,8.13
2023-05-25T22:22:46.945Z,9.20
2023-05-25T22:25:16.605Z,7.75
2023-05-25T22:27:45.747Z,8.40
2023-05-25T22:30:14.993Z,7.45
2023-05-25T22:32:46.961Z,9.52
2023-05-25T22:35:17.472Z,7.60
2023-05-25T22:37:46.711Z,9.10
2023-05-25T22:40:15.864Z,11.30
2023-05-25T22:42:50.059Z,8.63
2023-05-25T22:45:19.581Z,11.00
2023-05-25T22:47:49.033Z,9.00
2023-05-25T22:50:19.598Z,9.73
2023-05-25T22:52:48.753Z,8.25
2023-05-25T22:55:17.738Z,7.00
2023-05-25T22:57:46.854Z,9.68
2023-05-25T23:00:16.168Z,14.18
2023-05-25T23:02:45.433Z,8.07
2023-05-25T23:05:14.442Z,7.97
2023-05-25T23:07:44.955Z,9.20
2023-05-25T23:10:14.111Z,10.77
2023-05-25T23:12:43.344Z,9.65
2023-05-25T23:15:13.078Z,10.68
2023-05-25T23:17:42.185Z,8.02
2023-05-25T23:20:15.051Z,7.38
2023-05-25T23:22:49.494Z,9.73
2023-05-25T23:25:18.881Z,10.98
2023-05-25T23:27:48.086Z,11.18
2023-05-25T23:30:19.675Z,10.57
2023-05-25T23:32:48.692Z,11.40
2023-05-25T23:35:17.868Z,8.85
2023-05-25T23:37:48.255Z,9.80
2023-05-25T23:40:17.381Z,6.63
2023-05-25T23:42:46.493Z,10.98
2023-05-25T23:45:15.603Z,9.18
2023-05-25T23:47:44.777Z,11.80
2023-05-25T23:50:13.863Z,10.30
2023-05-25T23:52:47.479Z,10.50
2023-05-25T23:55:16.551Z,7.88
2023-05-25T23:57:52.863Z,8.48
